createdAt,value
2023-04-22T00:04:22.312Z,96.00
2023-04-22T00:09:26.432Z,96.30
2023-04-22T00:14:29.693Z,96.70
2023-04-22T00:19:34.438Z,97.40
2023-04-22T00:24:37.685Z,97.90
2023-04-22T00:29:41.319Z,98.40
2023-04-22T00:34:44.795Z,99.10
2023-04-22T00:39:48.520Z,99.90
2023-04-22T00:44:52.409Z,99.90
2023-04-22T00:49:55.690Z,99.90
2023-04-22T00:54:58.985Z,99.90
2023-04-22T01:00:02.855Z,99.90
2023-04-22T01:05:09.930Z,99.90
2023-04-22T01:10:13.354Z,99.90
2023-04-22T01:15:16.700Z,99.90
2023-04-22T01:20:19.878Z,99.90
2023-04-22T01:25:23.156Z,99.90
2023-04-22T01:30:26.517Z,99.90
2023-04-22T01:35:30.956Z,99.90
2023-04-22T01:40:34.706Z,99.90
2023-04-22T01:45:38.169Z,99.90
2023-04-22T01:50:41.507Z,99.90
2023-04-22T01:55:45.262Z,99.90
2023-04-22T02:00:48.705Z,99.90
2023-04-22T02:05:52.011Z,99.90
2023-04-22T02:10:55.340Z,99.90
2023-04-22T02:15:58.488Z,99.90
2023-04-22T02:21:01.782Z,99.90
2023-04-22T02:26:05.674Z,99.90
2023-04-22T02:31:08.951Z,99.90
2023-04-22T02:36:12.703Z,99.90
2023-04-22T02:41:16.011Z,99.90
2023-04-22T02:46:19.406Z,99.90
2023-04-22T02:51:23.931Z,99.90
2023-04-22T02:56:27.778Z,99.90
2023-04-22T03:01:31.465Z,99.90
2023-04-22T03:06:34.915Z,99.90
2023-04-22T03:11:38.150Z,99.90
2023-04-22T03:16:41.851Z,99.90
2023-04-22T03:21:45.301Z,99.90
2023-04-22T03:26:48.623Z,99.90
2023-04-22T03:31:51.951Z,99.90
2023-04-22T03:36:55.169Z,99.90
2023-04-22T03:41:58.311Z,99.90
2023-04-22T03:47:01.597Z,99.90
2023-04-22T03:52:05.440Z,99.90
2023-04-22T03:57:08.714Z,99.90
2023-04-22T04:02:12.337Z,99.90
2023-04-22T04:07:15.829Z,99.90
2023-04-22T04:12:19.190Z,99.90
2023-04-22T04:17:26.163Z,99.90
2023-04-22T04:22:29.627Z,99.90
2023-04-22T04:27:33.260Z,99.90
2023-04-22T04:32:37.195Z,99.90
2023-04-22T04:37:43.280Z,99.90
2023-04-22T04:42:46.474Z,99.90
2023-04-22T04:47:53.327Z,99.90
2023-04-22T04:52:56.490Z,99.90
2023-04-22T04:57:59.779Z,99.90
2023-04-22T05:03:03.256Z,99.90
2023-04-22T05:08:06.590Z,99.90
2023-04-22T05:13:09.827Z,99.90
2023-04-22T05:18:13.177Z,99.90
2023-04-22T05:23:16.777Z,99.90
2023-04-22T05:28:20.001Z,99.90
2023-04-22T05:33:23.167Z,99.90
2023-04-22T05:38:26.779Z,99.90
2023-04-22T05:43:29.981Z,99.90
2023-04-22T05:48:33.249Z,99.90
2023-04-22T05:53:36.464Z,99.90
2023-04-22T05:58:39.792Z,99.90
2023-04-22T06:03:43.339Z,99.90
2023-04-22T06:08:46.662Z,99.90
2023-04-22T06:13:49.904Z,99.90
2023-04-22T06:18:53.533Z,99.90
2023-04-22T06:23:56.810Z,99.90
2023-04-22T06:29:05.660Z,99.90
2023-04-22T06:34:08.914Z,99.90
2023-04-22T06:39:12.151Z,99.90
2023-04-22T06:44:15.679Z,99.90
2023-04-22T06:49:18.884Z,99.90
2023-04-22T06:54:22.036Z,99.90
2023-04-22T06:59:25.252Z,99.90
2023-04-22T07:04:29.789Z,99.90
2023-04-22T07:09:33.018Z,99.90
2023-04-22T07:14:36.320Z,99.90
2023-04-22T07:19:40.098Z,99.90
2023-04-22T07:24:43.643Z,99.90
2023-04-22T07:29:46.917Z,99.90
2023-04-22T07:34:50.279Z,99.90
2023-04-22T07:39:53.657Z,99.90
2023-04-22T07:44:56.848Z,99.90
2023-04-22T07:50:00.242Z,99.90
2023-04-22T07:55:03.705Z,99.90
2023-04-22T08:00:08.350Z,99.90
2023-04-22T08:05:11.994Z,99.90
2023-04-22T08:10:15.235Z,99.90
2023-04-22T08:15:18.654Z,99.60
2023-04-22T08:20:22.027Z,99.80
2023-04-22T08:25:25.335Z,98.80
2023-04-22T08:30:28.647Z,97.50
2023-04-22T08:35:32.455Z,98.10
2023-04-22T08:40:36.718Z,95.00
2023-04-22T08:45:41.122Z,95.40
2023-04-22T08:50:44.927Z,93.80
2023-04-22T08:55:50.915Z,93.90
2023-04-22T09:00:55.194Z,91.30
2023-04-22T09:05:59.845Z,91.50
2023-04-22T09:11:04.542Z,91.50
2023-04-22T09:16:11.054Z,90.70
2023-04-22T09:21:14.713Z,84.40
2023-04-22T09:26:23.923Z,86.50
2023-04-22T09:31:28.781Z,84.60
2023-04-22T09:36:41.223Z,86.10
2023-04-22T09:41:44.692Z,85.40
2023-04-22T09:46:51.719Z,78.20
2023-04-22T09:51:58.651Z,75.80
2023-04-22T09:57:02.986Z,75.80
2023-04-22T10:02:07.573Z,76.70
2023-04-22T10:07:11.115Z,77.40
2023-04-22T10:12:16.557Z,78.10
2023-04-22T10:17:22.323Z,75.00
2023-04-22T10:22:26.319Z,71.90
2023-04-22T10:27:29.823Z,74.10
2023-04-22T10:32:33.645Z,71.80
2023-04-22T10:37:37.540Z,70.30
2023-04-22T10:42:41.910Z,67.10
2023-04-22T10:47:45.854Z,65.40
2023-04-22T10:52:56.773Z,66.90
2023-04-22T10:58:00.301Z,64.50
2023-04-22T11:03:12.662Z,65.10
2023-04-22T11:08:21.106Z,63.40
2023-04-22T11:13:27.405Z,61.60
2023-04-22T11:18:33.064Z,62.20
2023-04-22T11:23:37.409Z,63.40
2023-04-22T11:28:47.124Z,64.10
2023-04-22T11:33:50.976Z,63.00
2023-04-22T11:38:58.083Z,62.80
2023-04-22T11:44:02.078Z,62.00
2023-04-22T11:49:17.842Z,61.80
2023-04-22T11:54:31.948Z,59.90
2023-04-22T11:59:35.878Z,65.00
2023-04-22T12:04:43.962Z,61.90
2023-04-22T12:09:47.216Z,62.30
2023-04-22T12:14:50.430Z,62.30
2023-04-22T12:19:57.515Z,59.50
2023-04-22T12:25:02.161Z,59.70
2023-04-22T12:30:06.587Z,59.70
2023-04-22T12:35:09.975Z,60.00
2023-04-22T12:40:13.715Z,59.10
2023-04-22T12:45:21.952Z,59.30
2023-04-22T12:50:28.198Z,59.60
2023-04-22T12:55:31.425Z,61.10
2023-04-22T13:00:35.003Z,57.10
2023-04-22T13:05:41.103Z,58.10
2023-04-22T13:10:46.994Z,59.00
2023-04-22T13:15:54.319Z,58.00
2023-04-22T13:21:01.175Z,57.00
2023-04-22T13:26:05.537Z,58.10
2023-04-22T13:31:11.693Z,57.50
2023-04-22T13:36:14.972Z,56.30
2023-04-22T13:41:22.374Z,58.20
2023-04-22T13:46:25.880Z,59.20
2023-04-22T13:51:29.793Z,59.30
2023-04-22T13:56:33.478Z,61.60
2023-04-22T14:01:38.322Z,57.30
2023-04-22T14:06:42.101Z,58.40
2023-04-22T14:11:45.463Z,59.40
2023-04-22T14:16:49.718Z,58.80
2023-04-22T14:21:53.420Z,57.70
2023-04-22T14:27:01.953Z,57.30
2023-04-22T14:32:05.294Z,57.20
2023-04-22T14:37:08.755Z,55.20
2023-04-22T14:42:12.494Z,51.10
2023-04-22T14:47:16.005Z,50.80
2023-04-22T14:52:19.724Z,50.30
2023-04-22T14:57:23.130Z,50.00
2023-04-22T15:02:26.508Z,45.80
2023-04-22T15:07:30.470Z,43.70
2023-04-22T15:12:33.731Z,41.70
2023-04-22T15:17:37.110Z,41.50
2023-04-22T15:22:43.879Z,38.60
2023-04-22T15:27:47.926Z,37.70
2023-04-22T15:32:51.215Z,37.10
2023-04-22T15:37:54.700Z,35.80
2023-04-22T15:42:58.030Z,39.00
2023-04-22T15:48:01.589Z,38.60
2023-04-22T15:53:05.217Z,38.30
2023-04-22T15:58:08.372Z,38.70
2023-04-22T16:03:11.998Z,39.20
2023-04-22T16:08:15.492Z,39.20
2023-04-22T16:13:19.530Z,38.30
2023-04-22T16:18:22.835Z,37.60
2023-04-22T16:23:26.431Z,38.50
2023-04-22T16:28:29.776Z,37.50
2023-04-22T16:33:34.347Z,37.60
2023-04-22T16:38:37.623Z,38.80
2023-04-22T16:43:41.426Z,37.50
2023-04-22T16:48:45.357Z,39.50
2023-04-22T16:53:48.588Z,39.20
2023-04-22T16:58:52.156Z,39.60
2023-04-22T17:03:56.033Z,39.00
2023-04-22T17:09:01.504Z,39.50
2023-04-22T17:14:05.393Z,39.10
2023-04-22T17:19:08.687Z,40.40
2023-04-22T17:24:14.206Z,41.60
2023-04-22T17:29:22.038Z,44.20
2023-04-22T17:34:25.794Z,45.90
2023-04-22T17:39:29.096Z,46.10
2023-04-22T17:44:32.625Z,48.20
2023-04-22T17:49:36.055Z,49.20
2023-04-22T17:54:39.305Z,52.10
2023-04-22T17:59:43.314Z,54.20
2023-04-22T18:04:47.473Z,57.50
2023-04-22T18:09:51.752Z,58.10
2023-04-22T18:14:56.792Z,64.70
2023-04-22T18:20:13.814Z,69.00
2023-04-22T18:25:21.014Z,69.70
2023-04-22T18:30:25.589Z,71.50
2023-04-22T18:35:29.053Z,74.20
2023-04-22T18:40:32.812Z,77.10
2023-04-22T18:45:37.180Z,79.10
2023-04-22T18:50:41.544Z,81.50
2023-04-22T18:55:45.256Z,83.80
2023-04-22T19:00:51.896Z,88.40
2023-04-22T19:05:55.516Z,90.20
2023-04-22T19:10:59.320Z,92.80
2023-04-22T19:16:03.868Z,94.30
2023-04-22T19:21:08.320Z,96.20
2023-04-22T19:26:14.643Z,99.20
2023-04-22T19:31:19.238Z,99.90
2023-04-22T19:36:23.025Z,99.90
2023-04-22T19:41:27.844Z,99.90
2023-04-22T19:46:32.141Z,99.90
2023-04-22T19:51:36.332Z,99.90
2023-04-22T19:56:42.132Z,99.90
2023-04-22T20:01:47.004Z,99.90
2023-04-22T20:06:54.241Z,99.90
2023-04-22T20:12:00.060Z,99.90
2023-04-22T20:17:04.889Z,99.90
2023-04-22T20:22:11.561Z,99.90
2023-04-22T20:27:17.613Z,99.90
2023-04-22T20:32:21.553Z,99.90
2023-04-22T20:37:26.580Z,99.90
2023-04-22T20:42:30.936Z,99.90
2023-04-22T20:47:36.037Z,99.90
2023-04-22T20:52:41.014Z,99.90
2023-04-22T20:57:44.260Z,99.90
2023-04-22T21:02:48.099Z,99.90
2023-04-22T21:07:53.416Z,99.90
2023-04-22T21:12:58.154Z,99.90
2023-04-22T21:18:03.694Z,99.90
2023-04-22T21:23:08.261Z,99.90
2023-04-22T21:28:11.956Z,99.90
2023-04-22T21:33:15.824Z,99.90
2023-04-22T21:38:20.161Z,99.90
2023-04-22T21:43:23.807Z,99.90
2023-04-22T21:48:27.080Z,99.90
2023-04-22T21:53:30.341Z,99.90
2023-04-22T21:58:33.898Z,99.90
2023-04-22T22:03:37.379Z,99.90
2023-04-22T22:08:41.662Z,99.90
2023-04-22T22:13:48.819Z,99.90
2023-04-22T22:18:52.172Z,99.90
2023-04-22T22:23:55.472Z,99.90
2023-04-22T22:28:58.617Z,99.90
2023-04-22T22:34:01.712Z,99.90
2023-04-22T22:39:05.934Z,99.90
2023-04-22T22:44:09.564Z,99.90
2023-04-22T22:49:13.583Z,99.90
2023-04-22T22:54:17.499Z,99.90
2023-04-22T22:59:20.826Z,99.90
2023-04-22T23:04:24.652Z,99.90
2023-04-22T23:09:28.196Z,99.90
2023-04-22T23:14:33.262Z,99.90
2023-04-22T23:19:36.644Z,99.90
2023-04-22T23:24:40.726Z,99.90
2023-04-22T23:29:44.735Z,99.90
2023-04-22T23:34:50.287Z,99.90
2023-04-22T23:39:53.420Z,99.90
2023-04-22T23:44:57.053Z,99.90
2023-04-22T23:50:00.346Z,99.90
2023-04-22T23:55:05.383Z,99.90
